Marchand, Pennsylvania
Current Conditions -  °F | °C
As of 9:35 AM on Saturday 25 Oct 2014 (Local Time) from KIDI Reporting Station
Few Clouds Few Clouds  
Wind Chill: 50°   Ceiling: Unl
Heat Index: 50°   Visibility: 10mi
Dew Point: 41°   Wind: 9mph
Humidity: 71%   Direction: 250°WSW
Pressure: 29.98"   Gusts: NA
Location:  40.86°N, 79.02°W
Report Text: KIDI 251335Z AUTO 25008KT 10SM FEW040 10/05 A2998 RMK A01
Loading
Personal Weather Stations






























Interactive Weather Map New forecast layout! Learn more

10-Day Weather Forecast

Advertisements
Track Severe Weather on mobile